CYUA

Shingle Point Airport

Yukon Territory, Canada
METAR CYUA 201500Z AUTO 20031G36KT ////SM //// OVC130 M08/M10 A2993
Observed Flight Rules
Feb-20 @ 15:00 UTC (22 hours ago)
Wind Clouds
200° at 31 knots
 Gusting to 36 knots
  • Overcast at 13,000' AGL
Temperatures Readings
Current -8°C / 18°F
Dewpoint -10°C / 14°F
Humidity 86%
Altimeter 29.93" Hg
Pressure 1014 hPa
Elevation 38
METAR CYUA 201500Z AUTO 20031G36KT ////SM //// OVC130 M08/M10 A2993
Observed Flight Rules
Feb-20 @ 15:00 UTC
(22 hours ago)
Wind
200° at 31 knots
 Gusting to 36 knots
Clouds
  • Overcast at 13,000' AGL
Temperature Dewpoint
-8°C / 18°F -10°C / 14°F
Humidity Altimeter Pressure
86% 29.93" Hg 1014 hPa